createdAt,value
2022-10-09T00:20:52.711Z,101339.86
2022-10-09T00:50:56.812Z,101359.14
2022-10-09T01:21:00.569Z,101376.65
2022-10-09T01:51:03.963Z,101412.23
2022-10-09T02:21:06.937Z,101443.45
2022-10-09T02:51:09.704Z,101462.47
2022-10-09T03:21:12.935Z,101498.84
2022-10-09T03:51:15.634Z,101533.30
2022-10-09T04:21:19.867Z,101533.22
2022-10-09T04:51:22.565Z,101563.30
2022-10-09T05:21:26.858Z,101608.31
2022-10-09T05:51:29.666Z,101637.88
2022-10-09T06:21:33.264Z,101671.02
2022-10-09T06:51:36.235Z,101705.16
2022-10-09T07:21:41.787Z,101740.16
2022-10-09T07:51:44.509Z,101750.41
2022-10-09T08:21:48.173Z,101781.11
2022-10-09T08:51:50.962Z,101778.52
2022-10-09T09:21:54.686Z,101781.92
2022-10-09T09:51:57.482Z,101782.70
2022-10-09T10:22:01.528Z,101788.52
2022-10-09T10:52:07.337Z,101794.32
2022-10-09T11:22:11.852Z,101796.81
2022-10-09T11:52:14.592Z,101768.84
2022-10-09T12:22:21.405Z,101734.78
2022-10-09T12:52:24.578Z,101744.05
2022-10-09T13:22:29.995Z,101711.93
2022-10-09T13:52:33.949Z,101712.61
2022-10-09T14:22:38.852Z,101702.15
2022-10-09T14:52:41.566Z,101698.31
2022-10-09T15:22:44.881Z,101683.80
2022-10-09T15:52:48.319Z,101689.10
2022-10-09T16:22:52.565Z,101686.27
2022-10-09T16:52:56.089Z,101701.26
2022-10-09T17:22:59.377Z,101717.42
2022-10-09T17:53:02.526Z,101727.13
2022-10-09T18:23:05.879Z,101727.97
2022-10-09T18:53:09.109Z,101716.61
2022-10-09T19:23:12.707Z,101701.86
2022-10-09T19:53:16.285Z,101717.41
2022-10-09T20:23:20.984Z,101705.13
2022-10-09T20:53:23.850Z,101704.91
2022-10-09T21:23:27.950Z,101698.63
2022-10-09T21:53:31.090Z,101693.09
2022-10-09T22:23:34.590Z,101665.83
2022-10-09T22:53:38.318Z,101655.45
2022-10-09T23:23:41.402Z,101639.77
2022-10-09T23:53:44.147Z,101618.08
